sensor_id;sensor_type;location;lat;lon;timestamp;temperature;humidity
74420;DHT22;62855;50.718;-2.460;2023-05-28T00:02:06;55.22;62.00
74420;DHT22;62855;50.718;-2.460;2023-05-28T00:05:07;55.40;62.00
74420;DHT22;62855;50.718;-2.460;2023-05-28T00:08:06;55.22;62.00
74420;DHT22;62855;50.718;-2.460;2023-05-28T00:11:06;55.22;62.00
74420;DHT22;62855;50.718;-2.460;2023-05-28T00:14:06;55.22;62.00
74420;DHT22;62855;50.718;-2.460;2023-05-28T00:17:06;55.22;62.00
74420;DHT22;62855;50.718;-2.460;2023-05-28T00:20:06;55.04;62.00
74420;DHT22;62855;50.718;-2.460;2023-05-28T00:23:07;54.86;62.00
74420;DHT22;62855;50.718;-2.460;2023-05-28T00:26:06;54.68;62.00
74420;DHT22;62855;50.718;-2.460;2023-05-28T00:29:06;54.68;62.00
74420;DHT22;62855;50.718;-2.460;2023-05-28T00:32:06;54.50;62.00
74420;DHT22;62855;50.718;-2.460;2023-05-28T00:35:07;54.32;63.00
74420;DHT22;62855;50.718;-2.460;2023-05-28T00:38:06;54.14;63.00
74420;DHT22;62855;50.718;-2.460;2023-05-28T00:41:06;54.14;63.00
74420;DHT22;62855;50.718;-2.460;2023-05-28T00:44:06;53.96;63.00
74420;DHT22;62855;50.718;-2.460;2023-05-28T00:47:06;53.78;63.00
74420;DHT22;62855;50.718;-2.460;2023-05-28T00:50:07;53.78;63.00
74420;DHT22;62855;50.718;-2.460;2023-05-28T00:53:06;53.60;63.00
74420;DHT22;62855;50.718;-2.460;2023-05-28T00:56:08;53.60;63.00
74420;DHT22;62855;50.718;-2.460;2023-05-28T00:59:06;53.60;63.00
74420;DHT22;62855;50.718;-2.460;2023-05-28T01:02:06;53.60;63.00
74420;DHT22;62855;50.718;-2.460;2023-05-28T01:05:07;53.42;63.00
74420;DHT22;62855;50.718;-2.460;2023-05-28T01:08:06;53.42;63.00
74420;DHT22;62855;50.718;-2.460;2023-05-28T01:11:08;53.42;64.00
74420;DHT22;62855;50.718;-2.460;2023-05-28T01:14:06;53.24;68.00
74420;DHT22;62855;50.718;-2.460;2023-05-28T01:17:07;53.24;68.00
74420;DHT22;62855;50.718;-2.460;2023-05-28T01:20:07;53.24;68.00
74420;DHT22;62855;50.718;-2.460;2023-05-28T01:23:11;53.06;68.00
74420;DHT22;62855;50.718;-2.460;2023-05-28T01:26:06;53.06;69.00
74420;DHT22;62855;50.718;-2.460;2023-05-28T01:29:14;52.88;69.00
74420;DHT22;62855;50.718;-2.460;2023-05-28T01:32:06;52.70;69.00
74420;DHT22;62855;50.718;-2.460;2023-05-28T01:35:07;52.70;69.00
74420;DHT22;62855;50.718;-2.460;2023-05-28T01:38:09;52.70;70.00
74420;DHT22;62855;50.718;-2.460;2023-05-28T01:41:07;52.52;70.00
74420;DHT22;62855;50.718;-2.460;2023-05-28T01:44:06;52.52;70.00
74420;DHT22;62855;50.718;-2.460;2023-05-28T01:47:06;52.34;70.00
74420;DHT22;62855;50.718;-2.460;2023-05-28T01:50:07;52.34;70.00
74420;DHT22;62855;50.718;-2.460;2023-05-28T01:53:07;52.34;70.00
74420;DHT22;62855;50.718;-2.460;2023-05-28T01:56:06;52.34;70.00
74420;DHT22;62855;50.718;-2.460;2023-05-28T01:59:06;52.16;70.00
74420;DHT22;62855;50.718;-2.460;2023-05-28T02:02:07;52.16;70.00
74420;DHT22;62855;50.718;-2.460;2023-05-28T02:05:06;51.98;70.00
74420;DHT22;62855;50.718;-2.460;2023-05-28T02:08:06;51.98;70.00
74420;DHT22;62855;50.718;-2.460;2023-05-28T02:11:06;51.98;70.00
74420;DHT22;62855;50.718;-2.460;2023-05-28T02:14:06;51.98;70.00
74420;DHT22;62855;50.718;-2.460;2023-05-28T02:17:06;51.98;70.00
74420;DHT22;62855;50.718;-2.460;2023-05-28T02:20:07;51.98;70.00
74420;DHT22;62855;50.718;-2.460;2023-05-28T02:23:06;51.80;70.00
74420;DHT22;62855;50.718;-2.460;2023-05-28T02:26:06;51.62;70.00
74420;DHT22;62855;50.718;-2.460;2023-05-28T02:29:06;51.62;70.00
74420;DHT22;62855;50.718;-2.460;2023-05-28T02:32:06;51.44;70.00
74420;DHT22;62855;50.718;-2.460;2023-05-28T02:35:07;51.44;71.00
74420;DHT22;62855;50.718;-2.460;2023-05-28T02:38:06;51.44;71.00
74420;DHT22;62855;50.718;-2.460;2023-05-28T02:41:06;51.44;71.00
74420;DHT22;62855;50.718;-2.460;2023-05-28T02:44:06;51.44;71.00
74420;DHT22;62855;50.718;-2.460;2023-05-28T02:47:06;51.44;71.00
74420;DHT22;62855;50.718;-2.460;2023-05-28T02:50:07;51.44;71.00
74420;DHT22;62855;50.718;-2.460;2023-05-28T02:53:06;51.44;71.00
74420;DHT22;62855;50.718;-2.460;2023-05-28T02:56:06;51.26;71.00
74420;DHT22;62855;50.718;-2.460;2023-05-28T02:59:06;51.26;71.00
74420;DHT22;62855;50.718;-2.460;2023-05-28T03:02:06;51.26;71.00
74420;DHT22;62855;50.718;-2.460;2023-05-28T03:05:06;51.08;71.00
74420;DHT22;62855;50.718;-2.460;2023-05-28T03:08:06;51.08;71.00
74420;DHT22;62855;50.718;-2.460;2023-05-28T03:11:06;50.90;71.00
74420;DHT22;62855;50.718;-2.460;2023-05-28T03:14:06;50.90;71.00
74420;DHT22;62855;50.718;-2.460;2023-05-28T03:17:06;50.72;71.00
74420;DHT22;62855;50.718;-2.460;2023-05-28T03:20:06;50.72;71.00
74420;DHT22;62855;50.718;-2.460;2023-05-28T03:23:06;50.72;71.00
74420;DHT22;62855;50.718;-2.460;2023-05-28T03:26:06;50.72;71.00
74420;DHT22;62855;50.718;-2.460;2023-05-28T03:29:06;50.54;71.00
74420;DHT22;62855;50.718;-2.460;2023-05-28T03:32:06;50.54;71.00
74420;DHT22;62855;50.718;-2.460;2023-05-28T03:35:07;50.54;71.00
74420;DHT22;62855;50.718;-2.460;2023-05-28T03:38:06;50.54;71.00
74420;DHT22;62855;50.718;-2.460;2023-05-28T03:41:06;50.54;71.00
74420;DHT22;62855;50.718;-2.460;2023-05-28T03:44:06;50.54;71.00
74420;DHT22;62855;50.718;-2.460;2023-05-28T03:47:06;50.54;72.00
74420;DHT22;62855;50.718;-2.460;2023-05-28T03:50:06;50.54;72.00
74420;DHT22;62855;50.718;-2.460;2023-05-28T03:53:06;50.54;72.00
74420;DHT22;62855;50.718;-2.460;2023-05-28T03:56:06;50.54;72.00
74420;DHT22;62855;50.718;-2.460;2023-05-28T03:59:06;50.54;72.00
74420;DHT22;62855;50.718;-2.460;2023-05-28T04:02:06;50.54;72.00
74420;DHT22;62855;50.718;-2.460;2023-05-28T04:05:07;50.54;72.00
74420;DHT22;62855;50.718;-2.460;2023-05-28T04:08:06;50.54;72.00
74420;DHT22;62855;50.718;-2.460;2023-05-28T04:11:06;50.36;72.00
74420;DHT22;62855;50.718;-2.460;2023-05-28T04:14:06;50.36;72.00
74420;DHT22;62855;50.718;-2.460;2023-05-28T04:17:06;50.36;72.00
74420;DHT22;62855;50.718;-2.460;2023-05-28T04:20:06;50.36;72.00
74420;DHT22;62855;50.718;-2.460;2023-05-28T04:23:06;50.36;72.00
74420;DHT22;62855;50.718;-2.460;2023-05-28T04:26:06;50.00;74.00
74420;DHT22;62855;50.718;-2.460;2023-05-28T04:29:06;50.00;75.00
74420;DHT22;62855;50.718;-2.460;2023-05-28T04:32:06;50.00;75.00
74420;DHT22;62855;50.718;-2.460;2023-05-28T04:35:07;50.18;75.00
74420;DHT22;62855;50.718;-2.460;2023-05-28T04:38:06;50.18;75.00
74420;DHT22;62855;50.718;-2.460;2023-05-28T04:41:06;50.18;75.00
74420;DHT22;62855;50.718;-2.460;2023-05-28T04:44:06;50.36;75.00
74420;DHT22;62855;50.718;-2.460;2023-05-28T04:47:07;50.36;75.00
74420;DHT22;62855;50.718;-2.460;2023-05-28T04:50:07;50.54;75.00
74420;DHT22;62855;50.718;-2.460;2023-05-28T04:53:06;50.72;75.00
74420;DHT22;62855;50.718;-2.460;2023-05-28T04:56:06;50.72;75.00
74420;DHT22;62855;50.718;-2.460;2023-05-28T04:59:06;50.90;75.00
74420;DHT22;62855;50.718;-2.460;2023-05-28T05:02:06;51.08;75.00
74420;DHT22;62855;50.718;-2.460;2023-05-28T05:05:07;51.26;75.00
74420;DHT22;62855;50.718;-2.460;2023-05-28T05:08:06;51.26;75.00
74420;DHT22;62855;50.718;-2.460;2023-05-28T05:11:06;51.44;75.00
74420;DHT22;62855;50.718;-2.460;2023-05-28T05:14:06;51.62;74.00
74420;DHT22;62855;50.718;-2.460;2023-05-28T05:17:06;51.80;74.00
74420;DHT22;62855;50.718;-2.460;2023-05-28T05:21:06;51.98;74.00
74420;DHT22;62855;50.718;-2.460;2023-05-28T05:24:06;51.98;74.00
74420;DHT22;62855;50.718;-2.460;2023-05-28T05:27:06;52.16;74.00
74420;DHT22;62855;50.718;-2.460;2023-05-28T05:30:07;52.34;74.00
74420;DHT22;62855;50.718;-2.460;2023-05-28T05:33:06;52.52;74.00
74420;DHT22;62855;50.718;-2.460;2023-05-28T05:36:08;52.52;73.00
74420;DHT22;62855;50.718;-2.460;2023-05-28T05:39:06;52.70;73.00
74420;DHT22;62855;50.718;-2.460;2023-05-28T05:42:06;52.70;73.00
74420;DHT22;62855;50.718;-2.460;2023-05-28T05:45:07;52.88;73.00
74420;DHT22;62855;50.718;-2.460;2023-05-28T05:48:06;53.06;73.00
74420;DHT22;62855;50.718;-2.460;2023-05-28T05:51:06;53.24;73.00
74420;DHT22;62855;50.718;-2.460;2023-05-28T05:54:06;53.42;73.00
74420;DHT22;62855;50.718;-2.460;2023-05-28T05:57:06;53.60;71.00
74420;DHT22;62855;50.718;-2.460;2023-05-28T06:00:07;53.60;71.00
74420;DHT22;62855;50.718;-2.460;2023-05-28T06:03:06;53.78;71.00
74420;DHT22;62855;50.718;-2.460;2023-05-28T06:06:06;53.96;71.00
74420;DHT22;62855;50.718;-2.460;2023-05-28T06:09:06;54.14;71.00
74420;DHT22;62855;50.718;-2.460;2023-05-28T06:12:06;54.32;71.00
74420;DHT22;62855;50.718;-2.460;2023-05-28T06:15:06;54.50;71.00
74420;DHT22;62855;50.718;-2.460;2023-05-28T06:18:06;54.50;71.00
74420;DHT22;62855;50.718;-2.460;2023-05-28T06:21:06;54.68;71.00
74420;DHT22;62855;50.718;-2.460;2023-05-28T06:24:06;54.86;71.00
74420;DHT22;62855;50.718;-2.460;2023-05-28T06:27:06;55.04;70.00
74420;DHT22;62855;50.718;-2.460;2023-05-28T06:30:07;55.22;70.00
74420;DHT22;62855;50.718;-2.460;2023-05-28T06:33:06;55.40;70.00
74420;DHT22;62855;50.718;-2.460;2023-05-28T06:36:07;55.58;70.00
74420;DHT22;62855;50.718;-2.460;2023-05-28T06:39:06;55.76;70.00
74420;DHT22;62855;50.718;-2.460;2023-05-28T06:42:06;55.94;70.00
74420;DHT22;62855;50.718;-2.460;2023-05-28T06:45:07;56.12;70.00
74420;DHT22;62855;50.718;-2.460;2023-05-28T06:48:06;56.30;69.00
74420;DHT22;62855;50.718;-2.460;2023-05-28T06:51:07;56.48;69.00
74420;DHT22;62855;50.718;-2.460;2023-05-28T06:54:06;56.66;68.00
74420;DHT22;62855;50.718;-2.460;2023-05-28T06:57:06;56.66;69.00
74420;DHT22;62855;50.718;-2.460;2023-05-28T07:00:08;56.84;68.00
74420;DHT22;62855;50.718;-2.460;2023-05-28T07:03:06;57.20;68.00
74420;DHT22;62855;50.718;-2.460;2023-05-28T07:06:06;57.38;67.00
74420;DHT22;62855;50.718;-2.460;2023-05-28T07:09:06;57.56;67.00
74420;DHT22;62855;50.718;-2.460;2023-05-28T07:12:06;57.56;67.00
74420;DHT22;62855;50.718;-2.460;2023-05-28T07:15:07;57.74;66.00
74420;DHT22;62855;50.718;-2.460;2023-05-28T07:18:06;57.92;66.00
74420;DHT22;62855;50.718;-2.460;2023-05-28T07:21:06;58.10;66.00
74420;DHT22;62855;50.718;-2.460;2023-05-28T07:24:06;58.46;66.00
74420;DHT22;62855;50.718;-2.460;2023-05-28T07:27:06;58.64;65.00
74420;DHT22;62855;50.718;-2.460;2023-05-28T07:30:08;58.82;65.00
74420;DHT22;62855;50.718;-2.460;2023-05-28T07:33:06;59.00;65.00
74420;DHT22;62855;50.718;-2.460;2023-05-28T07:36:06;59.18;65.00
74420;DHT22;62855;50.718;-2.460;2023-05-28T07:39:06;59.36;65.00
74420;DHT22;62855;50.718;-2.460;2023-05-28T07:42:06;59.54;66.00
74420;DHT22;62855;50.718;-2.460;2023-05-28T07:45:07;59.72;65.00
74420;DHT22;62855;50.718;-2.460;2023-05-28T07:48:06;59.72;64.00
74420;DHT22;62855;50.718;-2.460;2023-05-28T07:51:06;59.72;64.00
74420;DHT22;62855;50.718;-2.460;2023-05-28T07:54:06;60.08;65.00
74420;DHT22;62855;50.718;-2.460;2023-05-28T07:57:06;60.44;65.00
74420;DHT22;62855;50.718;-2.460;2023-05-28T08:00:07;60.62;65.00
74420;DHT22;62855;50.718;-2.460;2023-05-28T08:03:06;60.80;65.00
74420;DHT22;62855;50.718;-2.460;2023-05-28T08:06:06;61.16;65.00
74420;DHT22;62855;50.718;-2.460;2023-05-28T08:09:06;61.34;63.00
74420;DHT22;62855;50.718;-2.460;2023-05-28T08:12:06;61.34;63.00
74420;DHT22;62855;50.718;-2.460;2023-05-28T08:15:07;61.70;64.00
74420;DHT22;62855;50.718;-2.460;2023-05-28T08:18:06;61.70;62.00
74420;DHT22;62855;50.718;-2.460;2023-05-28T08:21:06;61.88;62.00
74420;DHT22;62855;50.718;-2.460;2023-05-28T08:24:07;62.42;62.00
74420;DHT22;62855;50.718;-2.460;2023-05-28T08:27:06;62.78;59.00
74420;DHT22;62855;50.718;-2.460;2023-05-28T08:30:07;62.96;59.00
74420;DHT22;62855;50.718;-2.460;2023-05-28T08:33:06;63.14;59.00
74420;DHT22;62855;50.718;-2.460;2023-05-28T08:36:06;63.32;57.00
74420;DHT22;62855;50.718;-2.460;2023-05-28T08:39:06;63.86;57.00
74420;DHT22;62855;50.718;-2.460;2023-05-28T08:42:06;64.22;56.00
74420;DHT22;62855;50.718;-2.460;2023-05-28T08:45:07;64.40;56.00
74420;DHT22;62855;50.718;-2.460;2023-05-28T08:48:07;64.76;55.00
74420;DHT22;62855;50.718;-2.460;2023-05-28T08:51:06;64.94;54.00
74420;DHT22;62855;50.718;-2.460;2023-05-28T08:54:06;65.12;52.00
74420;DHT22;62855;50.718;-2.460;2023-05-28T08:57:06;65.48;52.00
74420;DHT22;62855;50.718;-2.460;2023-05-28T09:00:07;65.66;51.00
74420;DHT22;62855;50.718;-2.460;2023-05-28T09:03:06;65.84;50.00
74420;DHT22;62855;50.718;-2.460;2023-05-28T09:06:07;66.20;50.00
74420;DHT22;62855;50.718;-2.460;2023-05-28T09:09:06;65.66;50.00
74420;DHT22;62855;50.718;-2.460;2023-05-28T09:12:10;66.02;48.00
74420;DHT22;62855;50.718;-2.460;2023-05-28T09:15:07;66.20;46.00
74420;DHT22;62855;50.718;-2.460;2023-05-28T09:18:06;66.20;42.00
74420;DHT22;62855;50.718;-2.460;2023-05-28T09:21:07;65.84;42.00
74420;DHT22;62855;50.718;-2.460;2023-05-28T09:24:06;65.66;42.00
74420;DHT22;62855;50.718;-2.460;2023-05-28T09:27:06;65.84;44.00
74420;DHT22;62855;50.718;-2.460;2023-05-28T09:30:07;66.02;41.00
74420;DHT22;62855;50.718;-2.460;2023-05-28T09:33:08;66.02;36.00
74420;DHT22;62855;50.718;-2.460;2023-05-28T09:36:06;66.02;39.00
74420;DHT22;62855;50.718;-2.460;2023-05-28T09:39:08;65.84;40.00
74420;DHT22;62855;50.718;-2.460;2023-05-28T09:42:06;66.02;40.00
74420;DHT22;62855;50.718;-2.460;2023-05-28T09:45:08;66.20;35.00
74420;DHT22;62855;50.718;-2.460;2023-05-28T09:48:06;66.20;39.00
74420;DHT22;62855;50.718;-2.460;2023-05-28T09:51:07;66.38;35.00
74420;DHT22;62855;50.718;-2.460;2023-05-28T09:54:07;66.38;35.00
74420;DHT22;62855;50.718;-2.460;2023-05-28T09:57:08;66.56;36.00
74420;DHT22;62855;50.718;-2.460;2023-05-28T10:00:07;66.74;37.00
74420;DHT22;62855;50.718;-2.460;2023-05-28T10:03:13;66.74;37.00
74420;DHT22;62855;50.718;-2.460;2023-05-28T10:06:15;66.74;35.00
74420;DHT22;62855;50.718;-2.460;2023-05-28T10:09:06;66.56;40.00
74420;DHT22;62855;50.718;-2.460;2023-05-28T10:12:11;66.56;39.00
74420;DHT22;62855;50.718;-2.460;2023-05-28T10:15:07;66.38;37.00
74420;DHT22;62855;50.718;-2.460;2023-05-28T10:18:06;66.56;39.00
74420;DHT22;62855;50.718;-2.460;2023-05-28T10:21:07;66.74;40.00
74420;DHT22;62855;50.718;-2.460;2023-05-28T10:24:06;66.92;40.00
74420;DHT22;62855;50.718;-2.460;2023-05-28T10:27:06;66.92;40.00
74420;DHT22;62855;50.718;-2.460;2023-05-28T10:30:09;67.10;40.00
74420;DHT22;62855;50.718;-2.460;2023-05-28T10:33:08;67.28;40.00
74420;DHT22;62855;50.718;-2.460;2023-05-28T10:36:09;67.64;40.00
74420;DHT22;62855;50.718;-2.460;2023-05-28T10:39:06;67.82;40.00
74420;DHT22;62855;50.718;-2.460;2023-05-28T10:42:07;67.82;40.00
74420;DHT22;62855;50.718;-2.460;2023-05-28T10:45:07;67.82;40.00
74420;DHT22;62855;50.718;-2.460;2023-05-28T10:48:06;67.82;40.00
74420;DHT22;62855;50.718;-2.460;2023-05-28T10:51:06;67.64;40.00
74420;DHT22;62855;50.718;-2.460;2023-05-28T10:54:13;67.28;40.00
74420;DHT22;62855;50.718;-2.460;2023-05-28T10:57:09;67.28;40.00
74420;DHT22;62855;50.718;-2.460;2023-05-28T11:00:08;67.64;41.00
74420;DHT22;62855;50.718;-2.460;2023-05-28T11:03:06;68.00;42.00
74420;DHT22;62855;50.718;-2.460;2023-05-28T11:06:07;68.54;41.00
74420;DHT22;62855;50.718;-2.460;2023-05-28T11:09:06;68.72;41.00
74420;DHT22;62855;50.718;-2.460;2023-05-28T11:12:07;68.72;40.00
74420;DHT22;62855;50.718;-2.460;2023-05-28T11:15:07;68.72;36.00
74420;DHT22;62855;50.718;-2.460;2023-05-28T11:18:07;68.54;37.00
74420;DHT22;62855;50.718;-2.460;2023-05-28T11:21:08;68.72;39.00
74420;DHT22;62855;50.718;-2.460;2023-05-28T11:24:06;69.08;40.00
74420;DHT22;62855;50.718;-2.460;2023-05-28T11:27:06;69.08;39.00
74420;DHT22;62855;50.718;-2.460;2023-05-28T11:30:09;69.26;35.00
74420;DHT22;62855;50.718;-2.460;2023-05-28T11:33:06;69.44;35.00
74420;DHT22;62855;50.718;-2.460;2023-05-28T11:36:06;69.62;35.00
74420;DHT22;62855;50.718;-2.460;2023-05-28T11:39:06;69.80;35.00
74420;DHT22;62855;50.718;-2.460;2023-05-28T11:42:07;69.98;35.00
74420;DHT22;62855;50.718;-2.460;2023-05-28T11:45:07;70.34;36.00
74420;DHT22;62855;50.718;-2.460;2023-05-28T11:48:10;69.98;33.00
74420;DHT22;62855;50.718;-2.460;2023-05-28T11:51:06;69.98;35.00
74420;DHT22;62855;50.718;-2.460;2023-05-28T11:54:06;69.80;35.00
74420;DHT22;62855;50.718;-2.460;2023-05-28T11:57:06;69.80;35.00
74420;DHT22;62855;50.718;-2.460;2023-05-28T12:00:08;70.34;33.00
74420;DHT22;62855;50.718;-2.460;2023-05-28T12:03:06;70.52;33.00
74420;DHT22;62855;50.718;-2.460;2023-05-28T12:06:06;70.52;32.00
74420;DHT22;62855;50.718;-2.460;2023-05-28T12:09:06;70.70;32.00
74420;DHT22;62855;50.718;-2.460;2023-05-28T12:12:10;70.88;32.00
74420;DHT22;62855;50.718;-2.460;2023-05-28T12:15:07;70.70;31.00
74420;DHT22;62855;50.718;-2.460;2023-05-28T12:18:06;70.52;32.00
74420;DHT22;62855;50.718;-2.460;2023-05-28T12:21:09;70.52;34.00
74420;DHT22;62855;50.718;-2.460;2023-05-28T12:24:11;70.52;34.00
74420;DHT22;62855;50.718;-2.460;2023-05-28T12:27:06;70.34;33.00
74420;DHT22;62855;50.718;-2.460;2023-05-28T12:30:07;70.52;33.00
74420;DHT22;62855;50.718;-2.460;2023-05-28T12:33:06;70.52;33.00
74420;DHT22;62855;50.718;-2.460;2023-05-28T12:36:06;70.52;33.00
74420;DHT22;62855;50.718;-2.460;2023-05-28T12:39:06;70.16;32.00
74420;DHT22;62855;50.718;-2.460;2023-05-28T12:42:06;69.98;33.00
74420;DHT22;62855;50.718;-2.460;2023-05-28T12:45:07;70.16;35.00
74420;DHT22;62855;50.718;-2.460;2023-05-28T12:48:06;70.34;36.00
74420;DHT22;62855;50.718;-2.460;2023-05-28T12:51:06;70.52;35.00
74420;DHT22;62855;50.718;-2.460;2023-05-28T12:54:06;70.52;36.00
74420;DHT22;62855;50.718;-2.460;2023-05-28T12:57:06;70.70;35.00
74420;DHT22;62855;50.718;-2.460;2023-05-28T13:00:07;70.88;35.00
74420;DHT22;62855;50.718;-2.460;2023-05-28T13:03:06;71.06;37.00
74420;DHT22;62855;50.718;-2.460;2023-05-28T13:06:06;71.24;36.00
74420;DHT22;62855;50.718;-2.460;2023-05-28T13:09:06;71.24;37.00
74420;DHT22;62855;50.718;-2.460;2023-05-28T13:12:06;71.24;36.00
74420;DHT22;62855;50.718;-2.460;2023-05-28T13:15:07;71.24;35.00
74420;DHT22;62855;50.718;-2.460;2023-05-28T13:18:06;71.06;35.00
74420;DHT22;62855;50.718;-2.460;2023-05-28T13:21:06;71.06;35.00
74420;DHT22;62855;50.718;-2.460;2023-05-28T13:24:06;71.06;37.00
74420;DHT22;62855;50.718;-2.460;2023-05-28T13:27:06;70.88;35.00
74420;DHT22;62855;50.718;-2.460;2023-05-28T13:30:07;70.70;37.00
74420;DHT22;62855;50.718;-2.460;2023-05-28T13:33:06;70.52;36.00
74420;DHT22;62855;50.718;-2.460;2023-05-28T13:36:07;70.70;39.00
74420;DHT22;62855;50.718;-2.460;2023-05-28T13:39:06;70.88;40.00
74420;DHT22;62855;50.718;-2.460;2023-05-28T13:42:06;71.06;39.00
74420;DHT22;62855;50.718;-2.460;2023-05-28T13:45:07;71.06;39.00
74420;DHT22;62855;50.718;-2.460;2023-05-28T13:48:06;71.06;39.00
74420;DHT22;62855;50.718;-2.460;2023-05-28T13:51:06;70.88;39.00
74420;DHT22;62855;50.718;-2.460;2023-05-28T13:54:06;70.88;40.00
74420;DHT22;62855;50.718;-2.460;2023-05-28T13:57:06;70.88;39.00
74420;DHT22;62855;50.718;-2.460;2023-05-28T14:00:08;70.88;40.00
74420;DHT22;62855;50.718;-2.460;2023-05-28T14:03:06;71.06;39.00
74420;DHT22;62855;50.718;-2.460;2023-05-28T14:06:06;71.42;35.00
74420;DHT22;62855;50.718;-2.460;2023-05-28T14:09:06;71.78;35.00
74420;DHT22;62855;50.718;-2.460;2023-05-28T14:12:06;71.78;35.00
74420;DHT22;62855;50.718;-2.460;2023-05-28T14:15:07;71.96;35.00
74420;DHT22;62855;50.718;-2.460;2023-05-28T14:18:06;72.14;34.00
74420;DHT22;62855;50.718;-2.460;2023-05-28T14:21:06;72.14;35.00
74420;DHT22;62855;50.718;-2.460;2023-05-28T14:24:06;72.32;35.00
74420;DHT22;62855;50.718;-2.460;2023-05-28T14:27:06;72.50;35.00
74420;DHT22;62855;50.718;-2.460;2023-05-28T14:30:07;72.86;35.00
74420;DHT22;62855;50.718;-2.460;2023-05-28T14:33:06;72.86;34.00
74420;DHT22;62855;50.718;-2.460;2023-05-28T14:36:06;72.68;33.00
74420;DHT22;62855;50.718;-2.460;2023-05-28T14:39:07;72.50;33.00
74420;DHT22;62855;50.718;-2.460;2023-05-28T14:42:06;72.50;34.00
74420;DHT22;62855;50.718;-2.460;2023-05-28T14:45:06;72.68;33.00
74420;DHT22;62855;50.718;-2.460;2023-05-28T14:48:07;72.50;32.00
74420;DHT22;62855;50.718;-2.460;2023-05-28T14:51:06;72.32;33.00
74420;DHT22;62855;50.718;-2.460;2023-05-28T14:54:06;72.14;33.00
74420;DHT22;62855;50.718;-2.460;2023-05-28T14:57:06;72.14;33.00
74420;DHT22;62855;50.718;-2.460;2023-05-28T15:00:07;72.32;33.00
74420;DHT22;62855;50.718;-2.460;2023-05-28T15:03:06;72.32;33.00
74420;DHT22;62855;50.718;-2.460;2023-05-28T15:06:06;72.32;34.00
74420;DHT22;62855;50.718;-2.460;2023-05-28T15:09:06;72.50;34.00
74420;DHT22;62855;50.718;-2.460;2023-05-28T15:12:07;72.50;34.00
74420;DHT22;62855;50.718;-2.460;2023-05-28T15:15:08;72.50;33.00
74420;DHT22;62855;50.718;-2.460;2023-05-28T15:18:06;72.68;33.00
74420;DHT22;62855;50.718;-2.460;2023-05-28T15:21:06;72.68;34.00
74420;DHT22;62855;50.718;-2.460;2023-05-28T15:24:06;72.68;33.00
74420;DHT22;62855;50.718;-2.460;2023-05-28T15:27:06;72.32;34.00
74420;DHT22;62855;50.718;-2.460;2023-05-28T15:30:07;72.32;34.00
74420;DHT22;62855;50.718;-2.460;2023-05-28T15:33:06;72.32;34.00
74420;DHT22;62855;50.718;-2.460;2023-05-28T15:36:07;72.32;33.00
74420;DHT22;62855;50.718;-2.460;2023-05-28T15:39:07;72.32;33.00
74420;DHT22;62855;50.718;-2.460;2023-05-28T15:42:07;72.14;33.00
74420;DHT22;62855;50.718;-2.460;2023-05-28T15:45:07;72.14;33.00
74420;DHT22;62855;50.718;-2.460;2023-05-28T15:48:06;72.14;33.00
74420;DHT22;62855;50.718;-2.460;2023-05-28T15:51:06;72.14;33.00
74420;DHT22;62855;50.718;-2.460;2023-05-28T15:54:06;71.96;34.00
74420;DHT22;62855;50.718;-2.460;2023-05-28T15:57:07;72.14;33.00
74420;DHT22;62855;50.718;-2.460;2023-05-28T16:00:07;72.14;33.00
74420;DHT22;62855;50.718;-2.460;2023-05-28T16:03:07;72.32;33.00
74420;DHT22;62855;50.718;-2.460;2023-05-28T16:06:07;72.14;32.00
74420;DHT22;62855;50.718;-2.460;2023-05-28T16:09:07;71.96;32.00
74420;DHT22;62855;50.718;-2.460;2023-05-28T16:12:08;71.96;32.00
74420;DHT22;62855;50.718;-2.460;2023-05-28T16:15:07;71.78;32.00
74420;DHT22;62855;50.718;-2.460;2023-05-28T16:18:07;71.78;32.00
74420;DHT22;62855;50.718;-2.460;2023-05-28T16:21:07;71.78;33.00
74420;DHT22;62855;50.718;-2.460;2023-05-28T16:24:06;71.60;33.00
74420;DHT22;62855;50.718;-2.460;2023-05-28T16:27:08;71.42;34.00
74420;DHT22;62855;50.718;-2.460;2023-05-28T16:30:07;71.42;33.00
74420;DHT22;62855;50.718;-2.460;2023-05-28T16:33:07;71.42;32.00
74420;DHT22;62855;50.718;-2.460;2023-05-28T16:36:07;71.24;36.00
74420;DHT22;62855;50.718;-2.460;2023-05-28T16:39:06;71.24;36.00
74420;DHT22;62855;50.718;-2.460;2023-05-28T16:42:07;71.42;33.00
74420;DHT22;62855;50.718;-2.460;2023-05-28T16:45:08;71.42;34.00
74420;DHT22;62855;50.718;-2.460;2023-05-28T16:48:06;71.42;34.00
74420;DHT22;62855;50.718;-2.460;2023-05-28T16:51:06;71.42;33.00
74420;DHT22;62855;50.718;-2.460;2023-05-28T16:54:06;71.42;33.00
74420;DHT22;62855;50.718;-2.460;2023-05-28T16:57:06;71.42;33.00
74420;DHT22;62855;50.718;-2.460;2023-05-28T17:00:08;71.42;34.00
74420;DHT22;62855;50.718;-2.460;2023-05-28T17:03:06;71.24;37.00
74420;DHT22;62855;50.718;-2.460;2023-05-28T17:06:06;71.24;38.00
74420;DHT22;62855;50.718;-2.460;2023-05-28T17:09:06;71.24;38.00
74420;DHT22;62855;50.718;-2.460;2023-05-28T17:12:06;71.24;36.00
74420;DHT22;62855;50.718;-2.460;2023-05-28T17:15:07;70.88;38.00
74420;DHT22;62855;50.718;-2.460;2023-05-28T17:18:06;70.88;38.00
74420;DHT22;62855;50.718;-2.460;2023-05-28T17:21:06;70.70;39.00
74420;DHT22;62855;50.718;-2.460;2023-05-28T17:24:06;70.70;40.00
74420;DHT22;62855;50.718;-2.460;2023-05-28T17:27:06;70.52;40.00
74420;DHT22;62855;50.718;-2.460;2023-05-28T17:30:07;70.16;40.00
74420;DHT22;62855;50.718;-2.460;2023-05-28T17:33:06;70.16;40.00
74420;DHT22;62855;50.718;-2.460;2023-05-28T17:36:06;69.98;41.00
74420;DHT22;62855;50.718;-2.460;2023-05-28T17:39:07;69.98;41.00
74420;DHT22;62855;50.718;-2.460;2023-05-28T17:42:06;69.98;42.00
74420;DHT22;62855;50.718;-2.460;2023-05-28T17:45:07;69.80;42.00
74420;DHT22;62855;50.718;-2.460;2023-05-28T17:48:06;69.80;42.00
74420;DHT22;62855;50.718;-2.460;2023-05-28T17:51:06;69.80;42.00
74420;DHT22;62855;50.718;-2.460;2023-05-28T17:54:06;69.80;42.00
74420;DHT22;62855;50.718;-2.460;2023-05-28T17:57:06;69.80;42.00
74420;DHT22;62855;50.718;-2.460;2023-05-28T18:00:07;69.62;42.00
74420;DHT22;62855;50.718;-2.460;2023-05-28T18:03:06;69.26;42.00
74420;DHT22;62855;50.718;-2.460;2023-05-28T18:06:06;69.08;42.00
74420;DHT22;62855;50.718;-2.460;2023-05-28T18:09:06;69.08;42.00
74420;DHT22;62855;50.718;-2.460;2023-05-28T18:12:06;68.90;42.00
74420;DHT22;62855;50.718;-2.460;2023-05-28T18:15:07;68.72;42.00
74420;DHT22;62855;50.718;-2.460;2023-05-28T18:18:06;68.54;42.00
74420;DHT22;62855;50.718;-2.460;2023-05-28T18:21:06;68.54;42.00
74420;DHT22;62855;50.718;-2.460;2023-05-28T18:24:08;68.36;42.00
74420;DHT22;62855;50.718;-2.460;2023-05-28T18:27:06;68.18;43.00
74420;DHT22;62855;50.718;-2.460;2023-05-28T18:30:07;68.18;42.00
74420;DHT22;62855;50.718;-2.460;2023-05-28T18:33:06;68.00;43.00
74420;DHT22;62855;50.718;-2.460;2023-05-28T18:36:06;68.00;43.00
74420;DHT22;62855;50.718;-2.460;2023-05-28T18:39:06;67.82;44.00